createdAt,value
2019-02-17T00:02:19.571Z,5.20
2019-02-17T00:04:47.065Z,5.40
2019-02-17T00:07:14.754Z,5.20
2019-02-17T00:09:42.591Z,5.10
2019-02-17T00:12:10.370Z,5.40
2019-02-17T00:14:38.087Z,5.50
2019-02-17T00:17:06.100Z,5.50
2019-02-17T00:19:34.016Z,5.40
2019-02-17T00:22:01.458Z,5.50
2019-02-17T00:24:29.291Z,5.50
2019-02-17T00:26:56.866Z,5.40
2019-02-17T00:29:24.945Z,5.40
2019-02-17T00:31:52.531Z,5.00
2019-02-17T00:34:20.137Z,5.20
2019-02-17T00:36:48.228Z,5.00
2019-02-17T00:39:15.753Z,4.90
2019-02-17T00:41:43.662Z,5.40
2019-02-17T00:44:11.180Z,5.20
2019-02-17T00:46:38.763Z,5.10
2019-02-17T00:49:06.507Z,5.00
2019-02-17T00:51:34.302Z,4.90
2019-02-17T00:54:01.807Z,5.30
2019-02-17T00:56:29.298Z,5.00
2019-02-17T00:58:56.890Z,5.30
2019-02-17T01:01:25.352Z,5.30
2019-02-17T01:03:53.607Z,5.10
2019-02-17T01:06:21.042Z,5.10
2019-02-17T01:08:48.734Z,4.70
2019-02-17T01:11:16.266Z,4.70
2019-02-17T01:13:44.086Z,4.70
2019-02-17T01:16:11.546Z,4.90
2019-02-17T01:18:39.326Z,4.80
2019-02-17T01:21:07.094Z,4.60
2019-02-17T01:23:34.595Z,4.60
2019-02-17T01:26:02.720Z,4.70
2019-02-17T01:28:30.313Z,4.80
2019-02-17T01:30:59.151Z,4.60
2019-02-17T01:33:27.020Z,4.50
2019-02-17T01:35:55.126Z,4.20
2019-02-17T01:38:22.898Z,4.60
2019-02-17T01:40:51.474Z,4.70
2019-02-17T01:43:19.331Z,4.60
2019-02-17T01:45:46.966Z,4.30
2019-02-17T01:48:14.454Z,4.60
2019-02-17T01:50:42.067Z,4.30
2019-02-17T01:53:10.194Z,4.10
2019-02-17T01:55:37.992Z,4.20
2019-02-17T01:58:05.727Z,4.30
2019-02-17T02:00:33.827Z,4.40
2019-02-17T02:03:01.651Z,4.20
2019-02-17T02:05:29.786Z,4.00
2019-02-17T02:07:57.255Z,3.90
2019-02-17T02:10:25.135Z,4.00
2019-02-17T02:12:52.986Z,4.10
2019-02-17T02:15:20.598Z,4.00
2019-02-17T02:17:48.078Z,3.70
2019-02-17T02:20:15.625Z,3.70
2019-02-17T02:22:43.175Z,3.80
2019-02-17T02:25:10.741Z,3.90
2019-02-17T02:27:38.356Z,4.00
2019-02-17T02:30:07.661Z,3.90
2019-02-17T02:32:35.556Z,3.90
2019-02-17T02:35:03.063Z,4.10
2019-02-17T02:37:30.867Z,4.00
2019-02-17T02:39:58.380Z,4.10
2019-02-17T02:42:25.899Z,4.00
2019-02-17T02:44:53.547Z,4.00
2019-02-17T02:47:21.138Z,4.10
2019-02-17T02:49:48.777Z,4.10
2019-02-17T02:52:16.624Z,3.90
2019-02-17T02:54:44.535Z,4.10
2019-02-17T02:57:12.139Z,4.10
2019-02-17T02:59:39.709Z,4.00
2019-02-17T03:02:07.891Z,3.90
2019-02-17T03:04:35.861Z,3.90
2019-02-17T03:07:09.506Z,3.80
2019-02-17T03:09:37.605Z,3.80
2019-02-17T03:12:05.123Z,3.70
2019-02-17T03:14:32.746Z,3.60
2019-02-17T03:17:00.856Z,3.70
2019-02-17T03:19:28.799Z,3.70
2019-02-17T03:21:56.316Z,3.60
2019-02-17T03:24:23.822Z,3.60
2019-02-17T03:26:51.404Z,3.70
2019-02-17T03:29:19.249Z,3.60
2019-02-17T03:31:46.927Z,3.70
2019-02-17T03:34:14.752Z,3.40
2019-02-17T03:36:42.546Z,3.50
2019-02-17T03:39:10.512Z,3.60
2019-02-17T03:41:38.654Z,3.20
2019-02-17T03:44:06.752Z,3.30
2019-02-17T03:46:34.874Z,3.20
2019-02-17T03:49:03.010Z,3.40
2019-02-17T03:51:30.888Z,3.50
2019-02-17T03:53:59.277Z,3.30
2019-02-17T03:56:26.874Z,3.50
2019-02-17T03:58:54.343Z,3.40
2019-02-17T04:01:22.322Z,3.40
2019-02-17T04:03:49.919Z,3.40
2019-02-17T04:06:17.478Z,3.50
2019-02-17T04:08:45.827Z,3.30
2019-02-17T04:11:13.654Z,3.50
2019-02-17T04:13:41.533Z,3.70
2019-02-17T04:16:09.291Z,3.60
2019-02-17T04:18:37.178Z,3.70
2019-02-17T04:21:04.956Z,3.60
2019-02-17T04:23:32.542Z,3.80
2019-02-17T04:26:00.045Z,3.80
2019-02-17T04:28:27.670Z,3.60
2019-02-17T04:30:55.149Z,3.80
2019-02-17T04:33:23.058Z,3.70
2019-02-17T04:35:50.542Z,3.40
2019-02-17T04:38:18.203Z,3.70
2019-02-17T04:40:45.918Z,3.60
2019-02-17T04:43:13.563Z,3.60
2019-02-17T04:45:41.393Z,3.60
2019-02-17T04:48:09.242Z,3.70
2019-02-17T04:50:37.114Z,3.60
2019-02-17T04:53:04.617Z,3.80
2019-02-17T04:55:32.400Z,3.50
2019-02-17T04:58:00.161Z,3.60
2019-02-17T05:00:39.228Z,3.40
2019-02-17T05:02:57.727Z,3.50
2019-02-17T05:05:25.351Z,3.30
2019-02-17T05:07:52.904Z,3.20
2019-02-17T05:10:20.552Z,3.40
2019-02-17T05:12:48.092Z,3.40
2019-02-17T05:15:15.666Z,3.40
2019-02-17T05:17:43.163Z,3.40
2019-02-17T05:20:11.067Z,2.70
2019-02-17T05:22:39.568Z,3.40
2019-02-17T05:25:07.380Z,3.00
2019-02-17T05:27:35.263Z,3.10
2019-02-17T05:30:03.168Z,3.00
2019-02-17T05:32:31.358Z,3.40
2019-02-17T05:34:59.880Z,3.20
2019-02-17T05:37:27.801Z,3.30
2019-02-17T05:39:56.145Z,3.10
2019-02-17T05:42:23.640Z,3.20
2019-02-17T05:44:51.228Z,3.10
2019-02-17T05:47:18.749Z,3.30
2019-02-17T05:49:46.623Z,3.30
2019-02-17T05:52:14.122Z,3.10
2019-02-17T05:54:42.342Z,3.20
2019-02-17T05:57:10.229Z,3.40
2019-02-17T05:59:37.874Z,3.10
2019-02-17T06:02:05.455Z,3.20
2019-02-17T06:04:33.671Z,2.60
2019-02-17T06:07:01.460Z,2.80
2019-02-17T06:09:29.334Z,3.10
2019-02-17T06:11:57.188Z,2.70
2019-02-17T06:14:24.963Z,2.70
2019-02-17T06:16:52.412Z,2.90
2019-02-17T06:19:20.626Z,2.20
2019-02-17T06:21:48.409Z,2.60
2019-02-17T06:24:16.278Z,2.80
2019-02-17T06:26:43.762Z,2.60
2019-02-17T06:29:11.255Z,2.80
2019-02-17T06:31:38.839Z,2.60
2019-02-17T06:34:06.435Z,2.70
2019-02-17T06:36:34.279Z,2.80
2019-02-17T06:39:02.018Z,2.60
2019-02-17T06:41:29.843Z,2.40
2019-02-17T06:43:57.563Z,1.90
2019-02-17T06:46:29.523Z,2.80
2019-02-17T06:48:57.007Z,2.60
2019-02-17T06:51:24.482Z,2.60
2019-02-17T06:53:52.242Z,2.60
2019-02-17T06:56:25.707Z,2.70
2019-02-17T06:58:53.538Z,2.90
2019-02-17T07:01:24.706Z,2.70
2019-02-17T07:03:50.664Z,2.70
2019-02-17T07:06:44.010Z,2.80
2019-02-17T07:09:11.831Z,2.60
2019-02-17T07:11:39.612Z,3.00
2019-02-17T07:14:07.471Z,3.10
2019-02-17T07:16:35.055Z,2.50
2019-02-17T07:19:02.542Z,3.30
2019-02-17T07:21:30.446Z,3.30
2019-02-17T07:23:58.621Z,3.40
2019-02-17T07:26:26.584Z,3.30
2019-02-17T07:28:54.142Z,3.60
2019-02-17T07:31:22.689Z,3.50
2019-02-17T07:33:50.510Z,3.60
2019-02-17T07:36:18.190Z,3.60
2019-02-17T07:38:45.970Z,3.60
2019-02-17T07:41:13.822Z,3.80
2019-02-17T07:43:41.941Z,3.80
2019-02-17T07:46:09.556Z,3.90
2019-02-17T07:48:37.116Z,4.30
2019-02-17T07:51:05.109Z,5.70
2019-02-17T07:53:32.686Z,7.60
2019-02-17T07:56:00.995Z,9.40
2019-02-17T07:58:28.662Z,10.30
2019-02-17T08:00:56.471Z,11.30
2019-02-17T08:03:23.968Z,12.70
2019-02-17T08:05:51.815Z,13.80
2019-02-17T08:08:19.446Z,15.00
2019-02-17T08:10:47.082Z,15.60
2019-02-17T08:13:15.156Z,16.20
2019-02-17T08:15:42.734Z,16.60
2019-02-17T08:18:10.496Z,16.50
2019-02-17T08:20:38.534Z,16.30
2019-02-17T08:23:06.010Z,16.40
2019-02-17T08:25:33.806Z,16.70
2019-02-17T08:28:01.419Z,18.10
2019-02-17T08:30:29.025Z,18.50
2019-02-17T08:32:56.626Z,18.40
2019-02-17T08:35:24.557Z,18.20
2019-02-17T08:37:52.140Z,18.30
2019-02-17T08:40:20.395Z,18.20
2019-02-17T08:42:47.986Z,18.00
2019-02-17T08:45:19.144Z,18.20
2019-02-17T08:47:47.319Z,17.70
2019-02-17T08:50:14.907Z,17.70
2019-02-17T08:52:42.413Z,18.10
2019-02-17T08:55:09.997Z,19.10
2019-02-17T08:57:38.197Z,19.40
2019-02-17T09:00:07.979Z,19.80
2019-02-17T09:02:35.479Z,19.80
2019-02-17T09:05:03.358Z,19.60
2019-02-17T09:07:31.284Z,19.50
2019-02-17T09:09:59.462Z,20.00
2019-02-17T09:12:27.341Z,20.20
2019-02-17T09:14:55.398Z,20.50
2019-02-17T09:17:22.920Z,21.00
2019-02-17T09:19:50.385Z,20.60
2019-02-17T09:22:18.022Z,21.10
2019-02-17T09:24:45.788Z,21.60
2019-02-17T09:27:13.283Z,22.40
2019-02-17T09:29:41.083Z,22.30
2019-02-17T09:32:16.083Z,22.40
2019-02-17T09:34:38.226Z,22.40
2019-02-17T09:37:06.107Z,21.50
2019-02-17T09:39:34.243Z,21.80
2019-02-17T09:42:02.027Z,22.10
2019-02-17T09:44:29.822Z,22.60
2019-02-17T09:46:57.669Z,22.30
2019-02-17T09:49:25.846Z,21.20
2019-02-17T09:51:53.750Z,20.30
2019-02-17T09:54:21.511Z,19.80
2019-02-17T09:56:49.619Z,19.40
2019-02-17T09:59:17.341Z,19.60
2019-02-17T10:01:45.519Z,19.80
2019-02-17T10:04:13.270Z,19.30
2019-02-17T10:06:40.821Z,18.90
2019-02-17T10:09:09.082Z,18.80
2019-02-17T10:11:36.962Z,18.40
2019-02-17T10:14:04.531Z,18.50
2019-02-17T10:16:32.099Z,19.20
2019-02-17T10:19:00.322Z,19.20
2019-02-17T10:21:28.129Z,19.30
2019-02-17T10:23:55.734Z,18.40
2019-02-17T10:26:23.267Z,18.10
2019-02-17T10:28:50.908Z,18.70
2019-02-17T10:31:18.760Z,18.60
2019-02-17T10:33:46.380Z,19.20
2019-02-17T10:36:13.930Z,19.10
2019-02-17T10:38:41.774Z,19.60
2019-02-17T10:41:09.486Z,19.50
2019-02-17T10:43:37.028Z,20.30
2019-02-17T10:46:06.122Z,19.40
2019-02-17T10:48:34.146Z,19.30
2019-02-17T10:51:01.983Z,19.80
2019-02-17T10:53:29.515Z,20.20
2019-02-17T10:55:57.348Z,20.30
2019-02-17T10:58:25.224Z,20.20
2019-02-17T11:00:53.461Z,20.50
2019-02-17T11:03:22.958Z,21.00
2019-02-17T11:05:50.430Z,20.50
2019-02-17T11:08:18.249Z,20.50
2019-02-17T11:10:45.831Z,20.60
2019-02-17T11:13:15.114Z,21.30
2019-02-17T11:15:42.823Z,21.70
2019-02-17T11:18:11.027Z,21.80
2019-02-17T11:20:38.614Z,21.80
2019-02-17T11:23:06.650Z,22.60
2019-02-17T11:25:34.291Z,23.00
2019-02-17T11:28:01.902Z,23.20
2019-02-17T11:30:29.353Z,21.70
2019-02-17T11:32:58.215Z,21.40
2019-02-17T11:35:26.224Z,21.80
2019-02-17T11:37:53.698Z,22.00
2019-02-17T11:40:21.182Z,22.40
2019-02-17T11:42:48.662Z,21.60
2019-02-17T11:45:16.706Z,21.20
2019-02-17T11:47:44.221Z,21.60
2019-02-17T11:50:12.107Z,21.80
2019-02-17T11:52:39.632Z,21.80
2019-02-17T11:55:08.268Z,21.90
2019-02-17T11:57:36.026Z,22.20
2019-02-17T12:00:05.023Z,22.30
2019-02-17T12:02:32.833Z,22.80
2019-02-17T12:05:00.700Z,22.90
2019-02-17T12:07:28.353Z,22.40
2019-02-17T12:09:56.310Z,22.70
2019-02-17T12:12:23.835Z,22.60
2019-02-17T12:14:51.375Z,22.70
2019-02-17T12:17:19.766Z,22.40
2019-02-17T12:19:48.011Z,22.40
2019-02-17T12:22:25.059Z,22.70
2019-02-17T12:25:07.478Z,22.70
2019-02-17T12:27:48.994Z,23.30
2019-02-17T12:30:20.655Z,23.00
2019-02-17T12:32:48.431Z,22.80
2019-02-17T12:35:19.894Z,23.10
2019-02-17T12:37:48.055Z,23.10
2019-02-17T12:40:16.160Z,23.40
2019-02-17T12:42:43.615Z,23.20
2019-02-17T12:45:17.950Z,23.00
2019-02-17T12:47:57.436Z,22.70
2019-02-17T12:50:20.199Z,23.20
2019-02-17T12:52:47.989Z,23.80
2019-02-17T12:55:15.814Z,24.60
2019-02-17T12:57:43.373Z,24.60
2019-02-17T13:00:15.064Z,24.50
2019-02-17T13:02:42.693Z,23.60
2019-02-17T13:05:10.294Z,23.10
2019-02-17T13:07:39.193Z,22.90
2019-02-17T13:10:07.889Z,22.60
2019-02-17T13:12:35.369Z,22.60
2019-02-17T13:15:03.410Z,22.60
2019-02-17T13:17:31.154Z,22.70
2019-02-17T13:19:58.687Z,22.50
2019-02-17T13:22:26.597Z,22.80
2019-02-17T13:24:54.190Z,22.70
2019-02-17T13:27:21.922Z,22.60
2019-02-17T13:29:50.289Z,22.60
2019-02-17T13:32:18.140Z,22.20
2019-02-17T13:34:46.090Z,22.10
2019-02-17T13:37:13.998Z,21.70
2019-02-17T13:39:42.446Z,21.70
2019-02-17T13:42:10.018Z,21.70
2019-02-17T13:44:37.906Z,21.60
2019-02-17T13:47:05.718Z,21.60
2019-02-17T13:49:33.776Z,21.50
2019-02-17T13:52:01.647Z,21.60
2019-02-17T13:54:29.401Z,21.20
2019-02-17T13:56:57.002Z,21.20
2019-02-17T13:59:24.472Z,21.40
2019-02-17T14:01:52.518Z,21.10
2019-02-17T14:04:21.030Z,20.70
2019-02-17T14:06:49.590Z,20.60
2019-02-17T14:09:17.187Z,20.30
2019-02-17T14:11:44.726Z,20.50
2019-02-17T14:14:12.611Z,20.70
2019-02-17T14:16:40.718Z,20.20
2019-02-17T14:19:08.692Z,20.00
2019-02-17T14:21:36.319Z,19.50
2019-02-17T14:24:04.441Z,19.50
2019-02-17T14:26:32.316Z,19.60
2019-02-17T14:29:00.215Z,19.30
2019-02-17T14:31:28.556Z,19.10
2019-02-17T14:33:58.634Z,18.50
2019-02-17T14:36:26.423Z,18.60
2019-02-17T14:38:54.017Z,18.50
2019-02-17T14:41:22.148Z,18.00
2019-02-17T14:43:51.216Z,17.90
2019-02-17T14:46:18.738Z,17.90
2019-02-17T14:48:46.918Z,17.80
2019-02-17T14:51:14.398Z,17.80
2019-02-17T14:53:41.862Z,17.60
2019-02-17T14:56:09.917Z,17.50
2019-02-17T14:58:37.808Z,17.60
2019-02-17T15:01:06.009Z,17.60
2019-02-17T15:03:34.203Z,17.50
2019-02-17T15:06:02.053Z,17.60
2019-02-17T15:08:29.835Z,17.60
2019-02-17T15:10:57.746Z,17.50
2019-02-17T15:13:25.846Z,17.50
2019-02-17T15:15:53.470Z,17.70
2019-02-17T15:18:21.319Z,17.40
2019-02-17T15:20:49.103Z,17.80
2019-02-17T15:23:17.079Z,17.80
2019-02-17T15:25:44.646Z,17.40
2019-02-17T15:28:12.546Z,17.20
2019-02-17T15:30:40.683Z,17.50
2019-02-17T15:33:08.514Z,17.30
2019-02-17T15:35:51.666Z,17.20
2019-02-17T15:38:19.546Z,17.20
2019-02-17T15:40:48.042Z,17.20
2019-02-17T15:43:15.926Z,16.90
2019-02-17T15:45:43.394Z,17.10
2019-02-17T15:48:11.186Z,17.20
2019-02-17T15:50:38.746Z,17.20
2019-02-17T15:53:06.765Z,17.00
2019-02-17T15:55:34.396Z,16.90
2019-02-17T15:58:02.019Z,16.90
2019-02-17T16:00:29.650Z,16.80
2019-02-17T16:02:57.550Z,16.80
2019-02-17T16:05:25.752Z,16.50
2019-02-17T16:07:55.719Z,16.40
2019-02-17T16:10:23.191Z,16.70
2019-02-17T16:12:51.174Z,16.30
2019-02-17T16:15:19.428Z,16.60
2019-02-17T16:17:47.220Z,16.40
2019-02-17T16:20:17.273Z,16.20
2019-02-17T16:22:44.877Z,16.10
2019-02-17T16:25:12.746Z,16.20
2019-02-17T16:27:40.890Z,15.90
2019-02-17T16:30:11.146Z,16.00
2019-02-17T16:32:38.615Z,16.10
2019-02-17T16:35:06.278Z,15.90
2019-02-17T16:37:33.830Z,15.80
2019-02-17T16:40:01.342Z,15.80
2019-02-17T16:42:28.859Z,15.70
2019-02-17T16:44:56.441Z,15.40
2019-02-17T16:47:24.418Z,15.30
2019-02-17T16:49:51.970Z,15.40
2019-02-17T16:52:19.658Z,15.30
2019-02-17T16:54:48.025Z,15.10
2019-02-17T16:57:15.866Z,15.10
2019-02-17T16:59:43.646Z,15.20
2019-02-17T17:02:11.146Z,15.20
2019-02-17T17:04:47.822Z,15.20
2019-02-17T17:07:08.808Z,14.90
2019-02-17T17:09:36.598Z,14.70
2019-02-17T17:12:04.535Z,14.90
2019-02-17T17:14:32.178Z,14.70
2019-02-17T17:17:01.033Z,14.70
2019-02-17T17:19:29.702Z,14.50
2019-02-17T17:21:57.346Z,14.70
2019-02-17T17:24:25.708Z,14.60
2019-02-17T17:26:53.440Z,14.70
2019-02-17T17:29:21.150Z,14.40
2019-02-17T17:31:48.726Z,14.30
2019-02-17T17:34:16.663Z,14.30
2019-02-17T17:36:44.195Z,14.00
2019-02-17T17:39:11.724Z,13.90
2019-02-17T17:41:39.230Z,13.70
2019-02-17T17:44:06.753Z,13.70
2019-02-17T17:46:34.261Z,13.40
2019-02-17T17:49:01.872Z,13.30
2019-02-17T17:51:29.478Z,13.00
2019-02-17T17:53:57.092Z,13.00
2019-02-17T17:56:24.683Z,12.60
2019-02-17T17:58:52.298Z,12.60
2019-02-17T18:01:19.850Z,12.10
2019-02-17T18:03:47.318Z,12.30
2019-02-17T18:06:17.112Z,12.20
2019-02-17T18:08:44.618Z,12.00
2019-02-17T18:11:12.834Z,11.90
2019-02-17T18:13:40.658Z,12.00
2019-02-17T18:16:08.779Z,11.80
2019-02-17T18:18:36.373Z,11.80
2019-02-17T18:21:04.361Z,11.50
2019-02-17T18:23:32.239Z,11.80
2019-02-17T18:26:00.047Z,11.50
2019-02-17T18:28:29.375Z,11.50
2019-02-17T18:30:56.879Z,11.50
2019-02-17T18:33:24.493Z,11.50
2019-02-17T18:35:52.587Z,11.10
2019-02-17T18:38:20.187Z,11.20
2019-02-17T18:40:47.994Z,10.90
2019-02-17T18:43:15.561Z,10.90
2019-02-17T18:45:43.403Z,10.70
2019-02-17T18:48:13.318Z,10.80
2019-02-17T18:50:41.667Z,11.00
2019-02-17T18:53:09.247Z,10.60
2019-02-17T18:55:37.106Z,10.60
2019-02-17T18:58:04.636Z,10.50
2019-02-17T19:00:32.530Z,10.70
2019-02-17T19:03:00.167Z,10.50
2019-02-17T19:05:31.826Z,10.20
2019-02-17T19:07:57.689Z,10.10
2019-02-17T19:10:25.307Z,10.20
2019-02-17T19:12:53.156Z,10.20
2019-02-17T19:15:20.823Z,10.20
2019-02-17T19:17:48.459Z,10.20
2019-02-17T19:20:17.107Z,10.20
2019-02-17T19:22:44.984Z,10.00
2019-02-17T19:25:15.650Z,10.00
2019-02-17T19:27:43.230Z,9.90
2019-02-17T19:30:12.387Z,10.10
2019-02-17T19:32:39.906Z,9.90
2019-02-17T19:35:08.695Z,9.80
2019-02-17T19:37:36.623Z,9.80
2019-02-17T19:40:04.515Z,9.80
2019-02-17T19:42:32.330Z,9.90
2019-02-17T19:45:00.107Z,9.90
2019-02-17T19:47:28.371Z,9.60
2019-02-17T19:49:56.222Z,9.50
2019-02-17T19:52:24.452Z,9.50
2019-02-17T19:54:51.991Z,9.40
2019-02-17T20:00:58.083Z,9.30
2019-02-17T20:03:35.042Z,9.00
2019-02-17T20:06:03.545Z,9.00
2019-02-17T20:08:32.019Z,8.90
2019-02-17T20:11:00.844Z,9.00
2019-02-17T20:13:29.062Z,8.90
2019-02-17T20:15:56.697Z,9.00
2019-02-17T20:18:24.230Z,8.90
2019-02-17T20:20:52.015Z,9.20
2019-02-17T20:23:20.210Z,8.90
2019-02-17T20:25:48.032Z,9.10
2019-02-17T20:28:15.754Z,9.20
2019-02-17T20:30:43.355Z,8.90
2019-02-17T20:33:11.142Z,9.10
2019-02-17T20:35:39.361Z,8.70
2019-02-17T20:38:07.002Z,8.90
2019-02-17T20:40:34.627Z,8.80
2019-02-17T20:43:02.380Z,9.00
2019-02-17T20:45:30.350Z,8.80
2019-02-17T20:47:58.301Z,8.70
2019-02-17T20:50:26.231Z,8.90
2019-02-17T20:52:53.850Z,9.20
2019-02-17T20:55:21.520Z,8.80
2019-02-17T20:57:49.398Z,9.20
2019-02-17T21:00:17.536Z,8.80
2019-02-17T21:02:45.435Z,8.50
2019-02-17T21:05:12.975Z,8.20
2019-02-17T21:07:41.252Z,8.50
2019-02-17T21:10:08.823Z,7.50
2019-02-17T21:12:36.640Z,8.30
2019-02-17T21:15:06.308Z,8.30
2019-02-17T21:17:34.290Z,8.30
2019-02-17T21:20:02.275Z,7.80
2019-02-17T21:22:30.097Z,7.80
2019-02-17T21:24:58.180Z,7.90
2019-02-17T21:27:25.843Z,7.90
2019-02-17T21:29:53.510Z,7.80
2019-02-17T21:32:22.452Z,7.90
2019-02-17T21:34:50.332Z,7.80
2019-02-17T21:37:17.988Z,7.80
2019-02-17T21:39:45.542Z,8.10
2019-02-17T21:42:13.098Z,7.70
2019-02-17T21:44:40.846Z,7.70
2019-02-17T21:47:08.426Z,7.80
2019-02-17T21:49:36.059Z,7.30
2019-02-17T21:52:03.911Z,7.60
2019-02-17T21:54:31.419Z,7.50
2019-02-17T21:56:58.950Z,7.60
2019-02-17T21:59:26.842Z,7.40
2019-02-17T22:01:54.560Z,7.60
2019-02-17T22:04:22.139Z,7.50
2019-02-17T22:06:50.055Z,7.20
2019-02-17T22:09:18.177Z,7.30
2019-02-17T22:11:46.324Z,7.60
2019-02-17T22:14:14.100Z,7.60
2019-02-17T22:16:42.055Z,7.30
2019-02-17T22:19:10.267Z,7.50
2019-02-17T22:21:38.707Z,7.50
2019-02-17T22:24:07.425Z,7.20
2019-02-17T22:26:35.114Z,7.00
2019-02-17T22:29:02.774Z,6.50
2019-02-17T22:31:30.636Z,6.90
2019-02-17T22:33:58.582Z,6.80
2019-02-17T22:36:26.334Z,6.50
2019-02-17T22:38:54.286Z,6.80
2019-02-17T22:41:22.232Z,6.50
2019-02-17T22:43:49.830Z,6.80
2019-02-17T22:46:17.733Z,6.80
2019-02-17T22:48:45.299Z,6.70
2019-02-17T22:51:13.275Z,6.30
2019-02-17T22:53:43.892Z,6.50
2019-02-17T22:56:11.166Z,6.60
2019-02-17T22:58:39.327Z,6.50
2019-02-17T23:01:09.338Z,6.40
2019-02-17T23:03:37.197Z,6.40
2019-02-17T23:06:04.875Z,6.60
2019-02-17T23:08:32.487Z,6.30
2019-02-17T23:11:00.127Z,6.50
2019-02-17T23:13:27.635Z,6.40
2019-02-17T23:15:55.395Z,6.40
2019-02-17T23:18:23.566Z,6.40
2019-02-17T23:20:51.066Z,6.30
2019-02-17T23:23:18.734Z,6.40
2019-02-17T23:25:46.290Z,6.40
2019-02-17T23:28:13.822Z,6.30
2019-02-17T23:30:41.610Z,6.20
2019-02-17T23:33:09.188Z,6.20
2019-02-17T23:35:36.639Z,6.20
2019-02-17T23:38:04.182Z,6.10
2019-02-17T23:40:31.771Z,6.30
2019-02-17T23:42:59.386Z,6.20
2019-02-17T23:45:27.562Z,6.10
2019-02-17T23:47:55.079Z,6.10
2019-02-17T23:50:23.015Z,6.20
2019-02-17T23:52:50.978Z,5.90
2019-02-17T23:55:18.490Z,6.00
2019-02-17T23:57:46.078Z,6.00
